createdAt,value
2022-10-06T00:01:52.021Z,1.90
2022-10-06T00:04:56.739Z,1.77
2022-10-06T00:08:02.193Z,1.88
2022-10-06T00:11:07.774Z,2.10
2022-10-06T00:14:12.322Z,1.70
2022-10-06T00:17:16.896Z,1.65
2022-10-06T00:20:21.781Z,1.85
2022-10-06T00:23:27.495Z,1.70
2022-10-06T00:26:31.991Z,1.70
2022-10-06T00:29:37.818Z,1.83
2022-10-06T00:32:42.619Z,2.80
2022-10-06T00:35:47.337Z,3.20
2022-10-06T00:38:52.171Z,1.75
2022-10-06T00:41:56.914Z,1.13
2022-10-06T00:45:05.815Z,1.40
2022-10-06T00:48:17.319Z,2.10
2022-10-06T00:51:23.148Z,1.65
2022-10-06T00:54:29.261Z,1.27
2022-10-06T00:57:37.785Z,1.70
2022-10-06T01:00:45.516Z,6.75
2022-10-06T01:03:58.331Z,21.42
2022-10-06T01:07:13.283Z,23.52
2022-10-06T01:10:18.004Z,7.28
2022-10-06T01:13:23.042Z,1.50
2022-10-06T01:16:33.265Z,1.35
2022-10-06T01:20:12.426Z,15.38
2022-10-06T01:23:17.914Z,3.47
2022-10-06T01:26:27.800Z,1.60
2022-10-06T01:29:34.981Z,1.50
2022-10-06T01:32:54.662Z,1.30
2022-10-06T01:36:00.531Z,1.40
2022-10-06T01:39:05.990Z,1.17
2022-10-06T01:42:11.930Z,1.17
2022-10-06T01:45:17.224Z,1.02
2022-10-06T01:48:21.855Z,0.95
2022-10-06T01:51:31.768Z,1.02
2022-10-06T01:54:39.824Z,1.10
2022-10-06T01:57:45.309Z,1.77
2022-10-06T02:00:51.799Z,2.67
2022-10-06T02:03:59.253Z,1.13
2022-10-06T02:07:04.762Z,1.95
2022-10-06T02:10:17.410Z,1.42
2022-10-06T02:13:26.666Z,0.50
2022-10-06T02:16:39.280Z,0.57
2022-10-06T02:19:43.986Z,0.80
2022-10-06T02:22:48.480Z,0.60
2022-10-06T02:26:06.880Z,0.70
2022-10-06T02:29:12.600Z,0.80
2022-10-06T02:32:16.995Z,1.10
2022-10-06T02:35:22.195Z,0.40
2022-10-06T02:38:28.128Z,0.57
2022-10-06T02:41:33.542Z,0.70
2022-10-06T02:44:41.057Z,1.10
2022-10-06T02:47:45.777Z,2.05
2022-10-06T02:50:59.516Z,1.40
2022-10-06T02:54:04.137Z,2.33
2022-10-06T02:57:09.007Z,1.50
2022-10-06T03:00:15.717Z,2.10
2022-10-06T03:03:25.095Z,1.00
2022-10-06T03:06:32.565Z,2.22
2022-10-06T03:09:44.454Z,1.00
2022-10-06T03:12:49.330Z,0.70
2022-10-06T03:15:54.400Z,0.50
2022-10-06T03:19:00.088Z,0.60
2022-10-06T03:22:07.156Z,0.70
2022-10-06T03:25:22.559Z,0.43
2022-10-06T03:28:28.874Z,0.70
2022-10-06T03:31:34.493Z,0.57
2022-10-06T03:34:40.027Z,1.02
2022-10-06T03:37:48.368Z,0.80
2022-10-06T03:40:53.115Z,1.75
2022-10-06T03:44:00.318Z,0.50
2022-10-06T03:47:05.405Z,0.80
2022-10-06T03:50:11.692Z,0.80
2022-10-06T03:53:16.350Z,1.55
2022-10-06T03:56:34.185Z,0.63
2022-10-06T03:59:38.899Z,1.10
2022-10-06T04:02:44.020Z,0.50
2022-10-06T04:05:57.148Z,0.80
2022-10-06T04:09:03.555Z,1.13
2022-10-06T04:18:19.988Z,0.60
2022-10-06T04:21:26.041Z,0.50
2022-10-06T04:24:31.770Z,0.63
2022-10-06T04:27:36.287Z,0.60
2022-10-06T04:30:44.838Z,0.70
2022-10-06T04:33:53.097Z,0.88
2022-10-06T04:36:58.771Z,0.52
2022-10-06T04:40:03.721Z,0.50
2022-10-06T04:43:10.198Z,1.17
2022-10-06T04:46:37.778Z,0.50
2022-10-06T04:49:42.261Z,0.88
2022-10-06T04:52:47.339Z,0.60
2022-10-06T04:56:11.539Z,0.70
2022-10-06T04:59:16.410Z,1.80
2022-10-06T05:02:23.579Z,0.50
2022-10-06T05:05:30.766Z,0.38
2022-10-06T05:08:36.903Z,0.57
2022-10-06T05:14:49.111Z,0.55
2022-10-06T05:21:06.621Z,1.00
2022-10-06T05:24:11.674Z,0.50
2022-10-06T05:27:16.549Z,0.45
2022-10-06T05:30:21.151Z,0.80
2022-10-06T05:33:27.384Z,0.93
2022-10-06T05:36:34.667Z,0.77
2022-10-06T05:39:40.293Z,1.08
2022-10-06T05:42:45.293Z,0.73
2022-10-06T05:45:58.748Z,0.40
2022-10-06T05:49:09.998Z,0.85
2022-10-06T05:52:17.485Z,1.15
2022-10-06T05:55:22.382Z,0.70
2022-10-06T05:58:27.844Z,0.90
2022-10-06T06:01:41.659Z,0.70
2022-10-06T06:04:56.759Z,0.80
2022-10-06T06:08:01.798Z,1.73
2022-10-06T06:11:08.592Z,17.92
2022-10-06T06:14:20.824Z,2.58
2022-10-06T06:17:25.817Z,1.63
2022-10-06T06:20:30.336Z,1.17
2022-10-06T06:23:40.880Z,6.82
2022-10-06T06:26:45.245Z,1.52
2022-10-06T06:29:50.419Z,0.80
2022-10-06T06:32:58.969Z,0.93
2022-10-06T06:36:04.875Z,0.95
2022-10-06T06:39:12.299Z,1.17
2022-10-06T06:42:17.656Z,2.10
2022-10-06T06:45:25.084Z,1.00
2022-10-06T06:48:38.794Z,1.58
2022-10-06T06:51:46.013Z,0.98
2022-10-06T06:54:52.590Z,48.88
2022-10-06T06:57:57.145Z,7.82
2022-10-06T07:01:09.303Z,2.75
2022-10-06T07:04:16.878Z,5.75
2022-10-06T07:07:23.753Z,1.30
2022-10-06T07:10:29.171Z,3.47
2022-10-06T07:13:33.773Z,3.83
2022-10-06T07:16:56.612Z,2.08
2022-10-06T07:20:20.891Z,2.90
2022-10-06T07:23:44.382Z,2.33
2022-10-06T07:26:53.401Z,3.30
2022-10-06T07:30:00.133Z,2.80
2022-10-06T07:33:05.951Z,2.47
2022-10-06T07:36:12.101Z,3.22
2022-10-06T07:39:17.112Z,3.28
2022-10-06T07:42:22.403Z,3.22
2022-10-06T07:45:47.748Z,3.92
2022-10-06T07:48:59.372Z,4.40
2022-10-06T07:52:04.199Z,4.07
2022-10-06T07:55:10.002Z,1.80
2022-10-06T07:58:39.676Z,1.27
2022-10-06T08:01:47.005Z,1.30
2022-10-06T08:04:51.723Z,0.85
2022-10-06T08:07:57.888Z,1.98
2022-10-06T08:11:02.503Z,2.72
2022-10-06T08:14:07.268Z,2.63
2022-10-06T08:17:12.128Z,8.93
2022-10-06T08:20:19.221Z,22.23
2022-10-06T08:23:23.876Z,20.20
2022-10-06T08:26:31.873Z,36.78
2022-10-06T08:29:36.752Z,28.95
2022-10-06T08:32:43.699Z,35.42
2022-10-06T08:35:51.051Z,53.42
2022-10-06T08:38:55.879Z,9.15
2022-10-06T08:42:00.621Z,17.80
2022-10-06T08:45:12.104Z,3.63
2022-10-06T08:48:30.125Z,4.75
2022-10-06T08:51:50.114Z,8.73
2022-10-06T08:55:03.293Z,5.32
2022-10-06T08:58:38.566Z,7.43
2022-10-06T09:01:52.371Z,5.13
2022-10-06T09:05:00.236Z,6.55
2022-10-06T09:08:14.961Z,16.02
2022-10-06T09:11:40.916Z,40.63
2022-10-06T09:14:53.034Z,25.67
2022-10-06T09:18:23.667Z,17.33
2022-10-06T09:21:46.485Z,16.80
2022-10-06T09:24:58.207Z,13.88
2022-10-06T09:28:04.324Z,24.67
2022-10-06T09:31:56.993Z,23.98
2022-10-06T09:35:01.822Z,30.08
2022-10-06T09:38:09.229Z,35.47
2022-10-06T09:41:14.840Z,42.13
2022-10-06T09:44:26.552Z,47.42
2022-10-06T09:47:34.086Z,45.13
2022-10-06T09:50:39.071Z,81.95
2022-10-06T09:54:11.381Z,69.00
2022-10-06T09:57:28.653Z,64.72
2022-10-06T10:00:40.432Z,84.63
2022-10-06T10:07:32.085Z,79.03
2022-10-06T10:10:37.713Z,74.15
2022-10-06T10:13:46.272Z,68.22
2022-10-06T10:16:53.364Z,64.18
2022-10-06T10:20:03.601Z,56.88
2022-10-06T10:23:24.132Z,39.47
2022-10-06T10:27:14.278Z,48.88
2022-10-06T10:30:19.437Z,47.70
2022-10-06T10:33:59.524Z,45.25
2022-10-06T10:37:25.207Z,51.17
2022-10-06T10:40:32.049Z,49.28
2022-10-06T10:43:52.179Z,25.77
2022-10-06T10:47:23.021Z,26.63
2022-10-06T10:50:30.593Z,34.13
2022-10-06T10:53:52.465Z,27.27
2022-10-06T10:56:57.320Z,25.90
2022-10-06T11:00:08.491Z,26.30
2022-10-06T11:03:14.017Z,26.52
2022-10-06T11:06:28.788Z,21.58
2022-10-06T11:09:36.494Z,18.30
2022-10-06T11:12:50.237Z,25.17
2022-10-06T11:16:13.040Z,23.55
2022-10-06T11:19:36.337Z,18.55
2022-10-06T11:23:25.626Z,16.17
2022-10-06T11:27:00.508Z,52.42
2022-10-06T11:30:27.340Z,38.55
2022-10-06T11:33:44.585Z,37.42
2022-10-06T11:37:10.817Z,43.90
2022-10-06T11:40:53.498Z,20.25
2022-10-06T11:44:01.153Z,21.75
2022-10-06T11:47:35.369Z,18.52
2022-10-06T11:50:45.454Z,17.70
2022-10-06T11:53:53.503Z,18.58
2022-10-06T11:56:58.030Z,10.75
2022-10-06T12:00:18.258Z,10.90
2022-10-06T12:03:34.498Z,14.82
2022-10-06T12:06:47.808Z,16.70
2022-10-06T12:09:53.331Z,16.33
2022-10-06T12:20:21.954Z,22.88
2022-10-06T12:23:30.460Z,19.42
2022-10-06T12:27:16.131Z,18.10
2022-10-06T12:30:50.477Z,18.55
2022-10-06T12:33:55.168Z,16.67
2022-10-06T12:37:54.709Z,15.63
2022-10-06T12:41:00.544Z,16.48
2022-10-06T12:44:23.247Z,12.63
2022-10-06T12:47:41.489Z,13.30
2022-10-06T12:50:46.530Z,19.38
2022-10-06T12:54:02.092Z,23.92
2022-10-06T12:57:17.833Z,17.27
2022-10-06T13:00:35.452Z,13.80
2022-10-06T13:03:40.483Z,17.45
2022-10-06T13:06:51.181Z,14.85
2022-10-06T13:10:15.083Z,16.77
2022-10-06T13:13:25.535Z,20.45
2022-10-06T13:16:34.061Z,19.30
2022-10-06T13:19:39.682Z,16.45
2022-10-06T13:25:58.767Z,17.52
2022-10-06T13:29:03.585Z,16.08
2022-10-06T13:32:19.684Z,18.03
2022-10-06T13:35:27.223Z,17.80
2022-10-06T13:38:35.809Z,17.30
2022-10-06T13:41:53.688Z,19.73
2022-10-06T13:45:03.796Z,17.30
2022-10-06T13:48:18.899Z,22.60
2022-10-06T13:51:30.569Z,18.17
2022-10-06T13:54:47.582Z,17.45
2022-10-06T13:58:13.485Z,17.10
2022-10-06T14:01:28.495Z,16.30
2022-10-06T14:04:35.937Z,14.52
2022-10-06T14:07:46.539Z,13.15
2022-10-06T14:10:56.284Z,13.43
2022-10-06T14:14:03.499Z,13.88
2022-10-06T14:17:19.196Z,16.08
2022-10-06T14:20:46.779Z,15.38
2022-10-06T14:23:55.236Z,24.67
2022-10-06T14:27:05.472Z,27.40
2022-10-06T14:30:11.913Z,25.17
2022-10-06T14:33:17.123Z,22.25
2022-10-06T14:36:29.762Z,20.45
2022-10-06T14:39:36.583Z,19.40
2022-10-06T14:42:41.072Z,17.17
2022-10-06T14:45:46.125Z,17.17
2022-10-06T14:48:52.081Z,16.80
2022-10-06T14:51:57.656Z,16.45
2022-10-06T14:55:02.318Z,13.38
2022-10-06T14:58:07.333Z,16.67
2022-10-06T15:01:18.096Z,15.05
2022-10-06T15:04:25.794Z,16.15
2022-10-06T15:07:48.857Z,16.45
2022-10-06T15:10:54.283Z,16.08
2022-10-06T15:14:00.003Z,18.65
2022-10-06T15:17:04.816Z,16.35
2022-10-06T15:20:10.680Z,15.43
2022-10-06T15:26:40.406Z,15.18
2022-10-06T15:29:45.542Z,14.63
2022-10-06T15:32:50.653Z,14.68
2022-10-06T15:36:18.220Z,12.32
2022-10-06T15:39:25.361Z,14.55
2022-10-06T15:42:30.033Z,13.13
2022-10-06T15:45:35.078Z,14.25
2022-10-06T15:48:44.170Z,14.47
2022-10-06T15:51:52.245Z,11.90
2022-10-06T15:54:58.966Z,14.10
2022-10-06T15:58:03.476Z,11.65
2022-10-06T16:01:11.746Z,11.98
2022-10-06T16:04:26.727Z,9.88
2022-10-06T16:07:33.494Z,11.43
2022-10-06T16:10:38.195Z,10.40
2022-10-06T16:13:42.728Z,10.75
2022-10-06T16:16:48.944Z,11.10
2022-10-06T16:19:53.500Z,8.20
2022-10-06T16:22:57.928Z,10.07
2022-10-06T16:26:05.490Z,9.07
2022-10-06T16:29:10.473Z,7.78
2022-10-06T16:32:14.954Z,8.40
2022-10-06T16:35:19.475Z,10.52
2022-10-06T16:38:24.601Z,10.32
2022-10-06T16:41:29.134Z,8.93
2022-10-06T16:44:33.720Z,10.32
2022-10-06T16:47:38.214Z,8.30
2022-10-06T16:50:42.462Z,7.65
2022-10-06T16:54:01.080Z,13.10
2022-10-06T16:57:07.602Z,10.63
2022-10-06T17:00:13.130Z,7.53
2022-10-06T17:03:17.767Z,9.20
2022-10-06T17:06:22.557Z,8.35
2022-10-06T17:09:28.999Z,6.78
2022-10-06T17:12:33.677Z,7.18
2022-10-06T17:15:38.252Z,7.53
2022-10-06T17:18:43.363Z,8.05
2022-10-06T17:21:51.540Z,7.28
2022-10-06T17:24:57.572Z,6.75
2022-10-06T17:28:02.161Z,7.50
2022-10-06T17:31:07.397Z,14.35
2022-10-06T17:34:18.342Z,14.75
2022-10-06T17:37:24.695Z,15.55
2022-10-06T17:40:29.206Z,13.90
2022-10-06T17:43:38.778Z,7.15
2022-10-06T17:46:45.393Z,7.22
2022-10-06T17:49:53.569Z,7.80
2022-10-06T17:53:00.202Z,18.05
2022-10-06T17:56:10.039Z,16.65
2022-10-06T17:59:20.770Z,16.05
2022-10-06T18:02:25.336Z,11.13
2022-10-06T18:05:32.955Z,11.50
2022-10-06T18:08:43.314Z,16.33
2022-10-06T18:11:55.872Z,14.25
2022-10-06T18:15:00.220Z,12.68
2022-10-06T18:18:05.673Z,14.05
2022-10-06T18:21:11.464Z,16.70
2022-10-06T18:27:24.931Z,20.60
2022-10-06T18:30:29.605Z,17.25
2022-10-06T18:36:59.030Z,16.55
2022-10-06T18:40:06.985Z,13.82
2022-10-06T18:43:11.910Z,13.30
2022-10-06T18:46:36.737Z,13.33
2022-10-06T18:49:41.123Z,9.90
2022-10-06T18:52:45.540Z,9.95
2022-10-06T18:55:53.556Z,9.95
2022-10-06T18:58:59.910Z,11.52
2022-10-06T19:02:05.969Z,10.15
2022-10-06T19:05:10.756Z,9.23
2022-10-06T19:08:15.289Z,7.30
2022-10-06T19:11:38.361Z,7.13
2022-10-06T19:14:48.067Z,8.07
2022-10-06T19:17:52.583Z,8.30
2022-10-06T19:20:57.400Z,7.30
2022-10-06T19:24:06.318Z,7.68
2022-10-06T19:27:13.596Z,7.50
2022-10-06T19:30:23.832Z,7.20
2022-10-06T19:33:28.699Z,6.80
2022-10-06T19:36:33.704Z,6.30
2022-10-06T19:39:43.555Z,6.75
2022-10-06T19:42:48.271Z,7.53
2022-10-06T19:45:59.370Z,9.40
2022-10-06T19:49:06.569Z,10.48
2022-10-06T19:52:13.382Z,8.88
2022-10-06T19:55:19.007Z,8.18
2022-10-06T20:01:33.077Z,8.13
2022-10-06T20:04:41.328Z,15.15
2022-10-06T20:07:47.299Z,13.27
2022-10-06T20:10:52.036Z,13.30
2022-10-06T20:13:57.143Z,8.30
2022-10-06T20:17:02.428Z,9.23
2022-10-06T20:20:07.436Z,9.23
2022-10-06T20:23:11.956Z,11.00
2022-10-06T20:26:19.377Z,8.63
2022-10-06T20:29:26.495Z,8.55
2022-10-06T20:32:30.874Z,32.38
2022-10-06T20:35:35.318Z,19.35
2022-10-06T20:38:59.167Z,34.65
2022-10-06T20:42:04.420Z,31.77
2022-10-06T20:45:09.376Z,28.25
2022-10-06T20:48:15.217Z,19.03
2022-10-06T20:51:24.168Z,23.30
2022-10-06T20:54:35.428Z,16.08
2022-10-06T20:57:41.371Z,14.43
2022-10-06T21:00:45.853Z,14.52
2022-10-06T21:03:52.485Z,29.95
2022-10-06T21:06:57.887Z,14.63
2022-10-06T21:10:02.509Z,16.20
2022-10-06T21:13:07.774Z,13.32
2022-10-06T21:16:13.463Z,13.35
2022-10-06T21:22:23.389Z,14.50
2022-10-06T21:25:27.652Z,16.67
2022-10-06T21:28:32.713Z,12.32
2022-10-06T21:31:37.273Z,17.40
2022-10-06T21:34:41.909Z,16.55
2022-10-06T21:37:47.273Z,16.10
2022-10-06T21:40:51.768Z,14.38
2022-10-06T21:43:58.709Z,12.82
2022-10-06T21:47:03.409Z,11.10
2022-10-06T21:50:08.382Z,9.77
2022-10-06T21:53:12.817Z,8.20
2022-10-06T21:56:17.291Z,7.10
2022-10-06T21:59:21.858Z,8.75
2022-10-06T22:02:26.375Z,8.15
2022-10-06T22:05:30.867Z,8.80
2022-10-06T22:08:37.513Z,14.48
2022-10-06T22:11:42.775Z,15.70
2022-10-06T22:14:47.188Z,17.25
2022-10-06T22:17:51.696Z,19.67
2022-10-06T22:20:56.098Z,10.32
2022-10-06T22:24:03.181Z,11.43
2022-10-06T22:27:07.459Z,12.90
2022-10-06T22:30:12.486Z,11.85
2022-10-06T22:33:17.149Z,15.27
2022-10-06T22:36:21.534Z,16.88
2022-10-06T22:39:26.066Z,13.95
2022-10-06T22:42:30.452Z,21.23
2022-10-06T22:45:34.799Z,14.80
2022-10-06T22:48:40.097Z,11.32
2022-10-06T22:51:44.619Z,9.65
2022-10-06T22:54:49.201Z,20.95
2022-10-06T22:57:53.725Z,9.50
2022-10-06T23:00:58.329Z,9.40
2022-10-06T23:04:02.837Z,7.93
2022-10-06T23:07:07.389Z,7.60
2022-10-06T23:10:11.816Z,6.72
2022-10-06T23:13:16.227Z,8.95
2022-10-06T23:16:21.875Z,8.38
2022-10-06T23:19:26.278Z,9.20
2022-10-06T23:22:30.863Z,10.57
2022-10-06T23:25:39.437Z,9.80
2022-10-06T23:28:44.319Z,9.20
2022-10-06T23:31:48.949Z,11.33
2022-10-06T23:34:53.860Z,10.38
2022-10-06T23:37:58.245Z,10.02
2022-10-06T23:41:03.275Z,10.98
2022-10-06T23:44:07.635Z,9.45
2022-10-06T23:47:12.144Z,5.40
2022-10-06T23:50:16.673Z,3.85
2022-10-06T23:53:21.098Z,4.38
2022-10-06T23:56:26.310Z,5.95
2022-10-06T23:59:32.462Z,6.22
